Time;durP1;ratioP1;P1;durP2;ratioP2;P2;SDS_P1;SDS_P2;PMS_P1;PMS_P2;Temp;Humidity;BMP_temperature;BMP_pressure;BME280_temperature;BME280_humidity;BME280_pressure;Samples;Min_cycle;Max_cycle;Signal;HPM_P1;HPM_P2
2023/02/05 00:01:16;;;;;;;2.10;1.05;;;26.10;45.80;;;;;;4136653;28;20045;-39
2023/02/05 00:03:39;;;;;;;1.42;0.90;;;26.10;45.50;;;;;;4135306;28;20038;-38
2023/02/05 00:06:01;;;;;;;0.98;0.70;;;26.10;45.40;;;;;;4133252;28;20037;-40
2023/02/05 00:08:26;;;;;;;3.75;0.90;;;26.20;45.50;;;;;;4138645;28;20046;-41
2023/02/05 00:10:52;;;;;;;2.75;0.80;;;26.20;45.40;;;;;;4127594;28;20417;-38
2023/02/05 00:13:15;;;;;;;1.38;0.60;;;26.20;45.30;;;;;;4132223;28;20108;-39
2023/02/05 00:15:40;;;;;;;3.25;0.95;;;26.30;45.30;;;;;;4136499;28;20120;-40
2023/02/05 00:18:03;;;;;;;0.80;0.47;;;26.20;45.20;;;;;;4137544;28;20104;-39
2023/02/05 00:20:27;;;;;;;1.45;0.60;;;26.30;45.30;;;;;;4139213;28;20046;-41
2023/02/05 00:22:49;;;;;;;1.13;0.63;;;26.30;45.30;;;;;;4132127;28;20489;-38
2023/02/05 00:25:12;;;;;;;1.95;0.70;;;26.30;45.10;;;;;;4136651;28;20038;-43
2023/02/05 00:27:34;;;;;;;2.38;0.80;;;26.30;45.20;;;;;;4111371;28;20419;-41
2023/02/05 00:29:57;;;;;;;1.25;0.70;;;26.40;45.30;;;;;;4136977;28;20223;-41
2023/02/05 00:32:19;;;;;;;1.48;0.50;;;26.40;45.10;;;;;;4136863;28;20038;-38
2023/02/05 00:34:42;;;;;;;6.30;1.10;;;26.40;45.20;;;;;;4127191;28;20057;-42
2023/02/05 00:37:04;;;;;;;3.45;1.08;;;26.40;45.10;;;;;;4143041;28;20049;-42
2023/02/05 00:39:26;;;;;;;2.30;0.73;;;26.40;45.10;;;;;;4150629;28;20092;-40
2023/02/05 00:41:49;;;;;;;3.72;1.17;;;26.40;45.00;;;;;;4151000;28;20040;-39
2023/02/05 00:44:11;;;;;;;1.05;0.50;;;26.50;45.10;;;;;;4148360;28;20045;-44
2023/02/05 00:46:34;;;;;;;1.40;0.50;;;26.40;45.00;;;;;;4148323;28;20068;-39
2023/02/05 00:48:57;;;;;;;1.92;0.60;;;26.50;45.00;;;;;;4150756;28;20041;-46
2023/02/05 00:51:19;;;;;;;1.52;0.57;;;26.50;44.90;;;;;;4151083;28;20041;-41
2023/02/05 00:53:42;;;;;;;1.05;0.70;;;26.50;44.80;;;;;;4150801;28;20065;-42
2023/02/05 00:56:04;;;;;;;0.90;0.40;;;26.50;44.80;;;;;;4150084;28;20183;-39
2023/02/05 00:58:27;;;;;;;1.17;0.45;;;26.50;44.80;;;;;;4143920;28;20037;-41
2023/02/05 01:00:51;;;;;;;1.02;0.50;;;26.50;44.80;;;;;;4151895;28;20061;-41
2023/02/05 01:03:13;;;;;;;0.25;0.20;;;26.50;44.80;;;;;;4139217;28;20033;-40
2023/02/05 01:05:37;;;;;;;0.55;0.40;;;26.50;44.80;;;;;;4145548;28;20389;-40
2023/02/05 01:07:59;;;;;;;;;;;26.50;44.80;;;;;;4151149;28;20160;-39
2023/02/05 01:10:21;;;;;;;0.60;0.40;;;26.60;44.80;;;;;;4153035;28;20004;-39
2023/02/05 01:12:44;;;;;;;0.60;0.40;;;26.60;44.70;;;;;;4137883;28;20587;-43
2023/02/05 01:15:07;;;;;;;0.38;0.38;;;26.60;44.70;;;;;;4150025;28;20076;-43
2023/02/05 01:17:30;;;;;;;2.55;0.32;;;26.60;44.80;;;;;;4150505;28;20045;-47
2023/02/05 01:19:52;;;;;;;2.97;0.40;;;26.60;44.70;;;;;;4149376;28;20112;-40
2023/02/05 01:22:15;;;;;;;0.65;0.30;;;26.60;44.70;;;;;;4148770;28;20045;-40
2023/02/05 01:24:38;;;;;;;1.17;0.32;;;26.60;44.60;;;;;;4147932;28;20132;-40
2023/02/05 01:27:00;;;;;;;0.30;0.30;;;26.60;44.60;;;;;;4151927;28;20049;-39
2023/02/05 01:29:23;;;;;;;0.95;0.40;;;26.70;44.60;;;;;;4140038;28;20393;-39
2023/02/05 01:31:45;;;;;;;1.38;0.52;;;26.70;44.60;;;;;;4148714;28;20041;-41
2023/02/05 01:34:08;;;;;;;0.20;0.20;;;26.70;44.60;;;;;;4143404;28;20041;-39
2023/02/05 01:36:30;;;;;;;0.68;0.60;;;26.70;44.60;;;;;;4149570;28;20045;-40
2023/02/05 01:38:53;;;;;;;0.75;0.32;;;26.70;44.70;;;;;;4150521;28;20052;-39
2023/02/05 01:41:15;;;;;;;0.73;0.40;;;26.70;44.60;;;;;;4150717;28;20889;-39
2023/02/05 01:43:38;;;;;;;1.13;0.50;;;26.80;44.70;;;;;;4149304;28;20041;-41
2023/02/05 01:46:25;;;;;;;0.25;0.20;;;26.80;44.70;;;;;;4151858;28;20128;-40
2023/02/05 01:48:53;;;;;;;0.93;0.30;;;26.80;44.70;;;;;;4149138;28;20516;-43
2023/02/05 01:51:16;;;;;;;1.63;0.50;;;26.80;44.70;;;;;;4150131;28;20558;-38
2023/02/05 01:53:39;;;;;;;0.95;0.40;;;26.80;44.60;;;;;;4139700;28;20042;-39
2023/02/05 01:56:10;;;;;;;0.85;0.32;;;26.80;44.60;;;;;;4146135;28;20034;-38
2023/02/05 01:58:40;;;;;;;1.75;0.40;;;26.90;44.70;;;;;;4149255;28;20048;-39
2023/02/05 02:01:02;;;;;;;0.65;0.30;;;26.90;44.70;;;;;;4148617;28;20037;-40
2023/02/05 02:03:27;;;;;;;0.93;0.40;;;26.90;44.70;;;;;;4139266;28;20154;-44
2023/02/05 02:05:50;;;;;;;0.50;0.40;;;26.90;45.20;;;;;;4149259;28;20505;-44
2023/02/05 02:08:12;;;;;;;1.25;0.40;;;27.00;44.70;;;;;;4148577;28;20107;-41
2023/02/05 02:10:35;;;;;;;0.90;0.50;;;27.00;44.70;;;;;;4152476;28;20029;-39
2023/02/05 02:12:58;;;;;;;0.67;0.30;;;27.00;44.30;;;;;;4151347;28;20332;-38
2023/02/05 02:15:24;;;;;;;0.50;0.30;;;27.00;44.70;;;;;;4148481;28;20568;-44
2023/02/05 02:17:54;;;;;;;0.28;0.28;;;27.00;44.70;;;;;;4139957;28;20033;-42
2023/02/05 02:20:27;;;;;;;0.98;0.50;;;27.00;44.70;;;;;;4148684;28;20044;-40
2023/02/05 02:23:08;;;;;;;0.40;0.32;;;27.00;44.70;;;;;;4148033;28;20069;-39
2023/02/05 02:25:48;;;;;;;0.30;0.30;;;27.00;44.70;;;;;;4147660;28;20127;-41
2023/02/05 02:28:28;;;;;;;1.35;0.35;;;27.10;44.70;;;;;;4153742;28;20049;-39
2023/02/05 02:31:06;;;;;;;0.98;0.40;;;27.10;44.70;;;;;;4153692;28;20040;-41
2023/02/05 02:33:37;;;;;;;0.30;0.30;;;27.20;44.70;;;;;;4151678;28;20410;-40
2023/02/05 02:36:03;;;;;;;0.47;0.28;;;27.20;44.80;;;;;;4148140;28;20081;-40
2023/02/05 02:38:36;;;;;;;0.60;0.40;;;27.20;44.70;;;;;;4148418;28;20053;-39
2023/02/05 02:41:24;;;;;;;0.40;0.40;;;27.20;44.70;;;;;;4153909;28;20045;-40
2023/02/05 02:43:58;;;;;;;0.45;0.35;;;27.20;44.70;;;;;;4147749;28;20083;-39
2023/02/05 02:46:37;;;;;;;0.47;0.35;;;27.20;44.70;;;;;;4149018;28;20386;-39
2023/02/05 03:17:07;;;;;;;1.48;0.40;;;27.40;44.70;;;;;;4155619;28;20056;-41
2023/02/05 03:19:30;;;;;;;0.88;0.47;;;27.50;44.70;;;;;;4155665;28;20792;-39
2023/02/05 03:22:05;;;;;;;0.93;0.57;;;27.50;44.80;;;;;;4156601;28;20037;-42
2023/02/05 03:24:27;;;;;;;0.65;0.40;;;27.50;44.70;;;;;;4152445;28;20045;-41
2023/02/05 03:26:49;;;;;;;1.75;0.93;;;27.50;44.70;;;;;;4161691;28;20048;-43
2023/02/05 03:29:16;;;;;;;1.52;0.93;;;27.50;44.70;;;;;;4156171;28;20053;-39
2023/02/05 03:31:46;;;;;;;2.72;1.40;;;27.50;44.90;;;;;;4157155;28;20044;-46
2023/02/05 03:34:30;;;;;;;2.15;1.45;;;27.50;44.80;;;;;;4153973;28;20106;-42
2023/02/05 03:37:39;;;;;;;1.90;1.25;;;27.60;44.80;;;;;;4155460;28;20052;-42
2023/02/05 03:40:43;;;;;;;2.00;1.48;;;27.60;44.80;;;;;;4146275;28;20409;-42
2023/02/05 03:43:24;;;;;;;2.25;1.60;;;27.60;44.80;;;;;;4152901;28;20103;-40
2023/02/05 03:46:05;;;;;;;1.98;1.30;;;27.70;44.90;;;;;;4151836;28;20571;-43
2023/02/05 03:48:47;;;;;;;2.65;1.65;;;27.70;44.90;;;;;;4151473;28;20057;-48
2023/02/05 03:51:21;;;;;;;2.38;1.52;;;27.70;44.90;;;;;;4153953;28;20554;-42
2023/02/05 03:53:50;;;;;;;2.97;1.60;;;27.70;45.50;;;;;;4155264;28;20046;-41
2023/02/05 03:56:24;;;;;;;2.70;1.80;;;27.80;44.90;;;;;;4154517;28;20476;-46
2023/02/05 03:58:50;;;;;;;3.03;1.90;;;27.80;44.90;;;;;;4155861;28;20075;-49
2023/02/05 04:01:13;;;;;;;2.40;1.80;;;27.80;44.40;;;;;;4154822;28;20048;-40
2023/02/05 04:03:36;;;;;;;2.22;1.58;;;27.80;44.80;;;;;;4152270;28;20037;-43
2023/02/05 04:05:58;;;;;;;3.42;1.92;;;27.80;44.90;;;;;;4155009;28;20044;-46
2023/02/05 04:08:21;;;;;;;2.05;1.45;;;27.80;44.80;;;;;;4158458;28;20505;-42
2023/02/05 04:10:43;;;;;;;2.30;1.40;;;27.80;44.70;;;;;;4154192;28;20044;-41
2023/02/05 04:13:06;;;;;;;2.65;1.70;;;27.90;44.80;;;;;;4156113;28;20053;-40
2023/02/05 04:15:28;;;;;;;2.08;1.50;;;27.90;44.80;;;;;;4155820;28;20037;-45
2023/02/05 04:17:50;;;;;;;2.28;1.27;;;27.90;44.70;;;;;;4156440;28;20100;-40
2023/02/05 04:20:13;;;;;;;1.92;1.33;;;27.90;44.60;;;;;;4157613;28;20052;-44
2023/02/05 04:22:35;;;;;;;1.70;1.10;;;28.00;44.60;;;;;;4155176;28;20039;-46
2023/02/05 04:24:58;;;;;;;2.22;1.38;;;28.10;44.70;;;;;;4155229;28;20072;-40
2023/02/05 04:27:20;;;;;;;1.48;1.05;;;28.10;44.60;;;;;;4154743;28;20076;-40
2023/02/05 04:29:42;;;;;;;1.85;1.17;;;28.10;44.70;;;;;;4155858;28;20037;-42
2023/02/05 04:32:05;;;;;;;1.42;0.88;;;28.10;44.60;;;;;;4154202;28;20394;-44
2023/02/05 04:34:27;;;;;;;1.17;0.85;;;28.20;44.60;;;;;;4155675;28;20045;-44
2023/02/05 04:36:50;;;;;;;1.05;0.88;;;28.20;44.40;;;;;;4153358;28;20050;-41
2023/02/05 04:39:12;;;;;;;1.10;0.70;;;28.30;44.50;;;;;;4153042;28;20037;-45
2023/02/05 04:41:34;;;;;;;1.05;0.70;;;28.30;44.40;;;;;;4152269;28;20041;-43
2023/02/05 04:43:57;;;;;;;1.38;0.85;;;28.40;44.40;;;;;;4154542;28;20056;-41
2023/02/05 04:46:19;;;;;;;2.25;1.10;;;28.50;44.30;;;;;;4154738;28;20462;-42
2023/02/05 04:48:42;;;;;;;1.52;0.90;;;28.50;44.20;;;;;;4152583;28;20108;-43
2023/02/05 04:51:09;;;;;;;0.88;0.70;;;28.60;44.20;;;;;;4155411;28;20033;-42
2023/02/05 04:53:32;;;;;;;1.30;0.75;;;28.70;44.10;;;;;;4152788;28;20116;-43
2023/02/05 04:56:07;;;;;;;1.73;0.70;;;28.70;44.00;;;;;;4152906;28;20037;-46
2023/02/05 04:58:30;;;;;;;0.90;0.60;;;28.80;44.00;;;;;;4150800;28;20037;-40
2023/02/05 05:00:52;;;;;;;1.25;0.77;;;28.90;44.00;;;;;;4153607;28;20038;-41
2023/02/05 05:03:14;;;;;;;0.55;0.38;;;29.00;43.90;;;;;;4154741;28;20037;-38
2023/02/05 05:05:37;;;;;;;1.05;0.60;;;29.00;43.80;;;;;;4152925;28;20524;-40
2023/02/05 05:07:59;;;;;;;1.23;0.82;;;29.10;43.80;;;;;;4154146;28;20034;-40
2023/02/05 05:10:22;;;;;;;0.73;0.52;;;29.20;43.70;;;;;;4151677;28;20505;-46
2023/02/05 05:12:44;;;;;;;0.63;0.60;;;29.20;43.60;;;;;;4152733;28;20934;-44
2023/02/05 05:15:07;;;;;;;1.05;0.50;;;29.30;43.70;;;;;;4150385;28;20114;-44
2023/02/05 05:17:30;;;;;;;0.77;0.60;;;29.40;43.70;;;;;;4153492;28;20033;-45
2023/02/05 05:19:52;;;;;;;1.43;0.70;;;29.50;43.60;;;;;;4152951;28;20441;-42
2023/02/05 05:22:15;;;;;;;0.98;0.63;;;29.50;43.40;;;;;;4155776;28;20285;-42
2023/02/05 05:24:37;;;;;;;1.90;1.00;;;29.60;43.30;;;;;;4152507;28;20396;-40
2023/02/05 05:27:00;;;;;;;1.30;0.85;;;29.70;43.30;;;;;;4144761;28;20096;-46
2023/02/05 05:29:22;;;;;;;1.17;0.95;;;29.70;43.20;;;;;;4152054;28;20072;-44
2023/02/05 05:31:44;;;;;;;1.35;1.00;;;29.80;43.20;;;;;;4154198;28;20098;-43
2023/02/05 05:34:07;;;;;;;1.17;0.88;;;29.90;43.20;;;;;;4150895;28;20063;-45
2023/02/05 05:36:30;;;;;;;1.85;1.00;;;29.90;43.10;;;;;;4152124;28;20088;-40
2023/02/05 05:38:52;;;;;;;2.67;0.90;;;30.00;43.00;;;;;;4150856;28;20037;-47
2023/02/05 05:44:02;;;;;;;0.75;0.50;;;30.20;42.90;;;;;;4151677;28;20436;-42
2023/02/05 05:46:25;;;;;;;1.23;0.75;;;30.30;42.90;;;;;;4154337;28;20093;-47
2023/02/05 05:48:52;;;;;;;1.45;0.85;;;30.30;42.80;;;;;;4154198;28;20087;-41
2023/02/05 05:51:14;;;;;;;1.83;0.80;;;30.40;42.70;;;;;;4152357;28;20063;-44
2023/02/05 05:53:37;;;;;;;0.93;0.68;;;30.50;42.70;;;;;;4153384;28;20496;-44
2023/02/05 05:55:59;;;;;;;1.10;0.73;;;30.50;42.60;;;;;;4151270;28;20452;-44
2023/02/05 05:58:22;;;;;;;1.38;0.57;;;30.60;42.50;;;;;;4148099;28;20038;-41
2023/02/05 06:00:45;;;;;;;1.38;0.80;;;30.70;42.50;;;;;;4153208;28;20037;-44
2023/02/05 06:03:09;;;;;;;1.70;0.93;;;30.70;42.40;;;;;;4154711;28;20044;-39
2023/02/05 06:05:32;;;;;;;0.95;0.50;;;30.80;42.40;;;;;;4154549;28;20067;-44
2023/02/05 06:07:55;;;;;;;1.10;0.45;;;30.90;42.40;;;;;;4152645;28;20497;-41
2023/02/05 06:10:17;;;;;;;0.82;0.60;;;30.90;42.30;;;;;;4150823;28;21570;-42
2023/02/05 06:12:40;;;;;;;1.08;0.40;;;31.00;42.20;;;;;;4150724;28;20073;-43
2023/02/05 06:15:02;;;;;;;1.30;0.50;;;31.00;42.10;;;;;;4151924;28;20037;-41
2023/02/05 06:17:24;;;;;;;4.93;0.95;;;31.10;42.10;;;;;;4154436;28;20417;-44
2023/02/05 06:19:47;;;;;;;0.63;0.50;;;31.10;42.10;;;;;;4145943;28;20037;-43
2023/02/05 06:22:09;;;;;;;0.68;0.60;;;31.20;42.00;;;;;;4152942;28;20076;-43
2023/02/05 06:24:32;;;;;;;1.13;0.57;;;31.20;41.90;;;;;;4148572;28;20394;-40
2023/02/05 06:26:54;;;;;;;0.65;0.30;;;31.30;41.80;;;;;;4146076;28;20365;-41
2023/02/05 06:29:17;;;;;;;0.60;0.40;;;31.40;41.80;;;;;;4150590;28;20049;-41
2023/02/05 06:31:39;;;;;;;1.30;0.55;;;31.40;41.70;;;;;;4146631;28;20041;-44
2023/02/05 06:34:01;;;;;;;1.38;0.82;;;31.40;41.70;;;;;;4150438;28;20041;-40
2023/02/05 06:36:24;;;;;;;0.82;0.50;;;31.50;41.80;;;;;;4139651;28;20542;-40
2023/02/05 06:38:46;;;;;;;1.92;0.43;;;31.50;41.80;;;;;;4150190;28;20033;-40
2023/02/05 06:41:09;;;;;;;2.47;0.57;;;31.60;41.70;;;;;;4149976;28;20041;-40
2023/02/05 06:43:31;;;;;;;1.73;0.63;;;31.70;41.80;;;;;;4150049;28;20037;-39
2023/02/05 06:45:54;;;;;;;0.75;0.40;;;31.70;41.70;;;;;;4149394;28;20545;-45
2023/02/05 06:48:17;;;;;;;1.67;0.40;;;31.70;41.70;;;;;;4148267;28;20371;-41
2023/02/05 06:50:39;;;;;;;0.65;0.52;;;31.70;41.70;;;;;;4143833;28;20064;-40
2023/02/05 06:53:02;;;;;;;1.38;0.65;;;31.80;41.60;;;;;;4146906;28;20446;-41
2023/02/05 06:55:24;;;;;;;1.73;0.80;;;31.80;41.70;;;;;;4138039;28;20337;-40
2023/02/05 06:57:47;;;;;;;1.75;0.82;;;31.80;41.60;;;;;;4146041;28;20041;-44
2023/02/05 07:00:10;;;;;;;1.85;0.50;;;31.90;41.70;;;;;;4144296;28;20045;-39
2023/02/05 07:02:32;;;;;;;;;;;31.90;41.70;;;;;;4145765;28;20034;-42
2023/02/05 07:04:54;;;;;;;1.45;0.63;;;31.90;41.70;;;;;;4147709;28;20222;-41
2023/02/05 07:07:17;;;;;;;0.73;0.50;;;32.00;41.70;;;;;;4147215;28;20049;-41
2023/02/05 07:09:39;;;;;;;1.75;0.75;;;31.90;41.70;;;;;;4151482;28;20041;-41
2023/02/05 07:12:02;;;;;;;1.05;0.40;;;32.00;41.70;;;;;;4147837;28;20037;-41
2023/02/05 07:14:24;;;;;;;0.95;0.47;;;31.90;41.70;;;;;;4147037;28;20084;-41
2023/02/05 07:16:46;;;;;;;1.35;0.50;;;31.90;41.70;;;;;;4152439;28;20052;-41
2023/02/05 07:19:09;;;;;;;1.35;0.32;;;31.90;42.40;;;;;;4151071;28;20045;-41
2023/02/05 07:21:31;;;;;;;2.67;0.77;;;31.90;41.80;;;;;;4154391;28;20033;-41
2023/02/05 07:23:54;;;;;;;1.10;0.30;;;31.90;41.80;;;;;;4152262;28;20095;-40
2023/02/05 07:26:17;;;;;;;1.58;0.50;;;31.80;41.80;;;;;;4149146;28;20087;-40
2023/02/05 07:28:39;;;;;;;;;;;31.80;41.90;;;;;;4152885;28;20094;-43
2023/02/05 07:31:07;;;;;;;0.95;0.40;;;31.80;41.90;;;;;;4146884;28;20004;-40
2023/02/05 07:33:30;;;;;;;1.58;0.40;;;31.80;42.00;;;;;;4154046;28;20040;-43
2023/02/05 07:35:53;;;;;;;1.17;0.50;;;31.70;42.00;;;;;;4154542;28;20637;-46
2023/02/05 07:38:15;;;;;;;0.88;0.50;;;31.70;42.00;;;;;;4156541;28;20089;-44
2023/02/05 07:40:38;;;;;;;0.57;0.45;;;31.70;42.10;;;;;;4156838;28;20505;-48
2023/02/05 07:43:00;;;;;;;0.77;0.30;;;31.60;42.20;;;;;;4157526;28;20033;-45
2023/02/05 07:45:23;;;;;;;1.33;0.50;;;31.60;42.30;;;;;;4154417;28;20474;-42
2023/02/05 07:47:48;;;;;;;0.60;0.50;;;31.50;42.40;;;;;;4150522;28;20052;-46
2023/02/05 07:50:11;;;;;;;1.13;0.63;;;31.40;42.40;;;;;;4155795;28;20094;-43
2023/02/05 07:52:33;;;;;;;1.75;0.50;;;31.40;42.40;;;;;;4157316;28;20044;-44
2023/02/05 07:54:56;;;;;;;0.80;0.50;;;31.40;42.60;;;;;;4155569;28;20040;-44
2023/02/05 07:57:18;;;;;;;2.00;0.60;;;31.30;42.60;;;;;;4154117;28;20045;-45
2023/02/05 07:59:40;;;;;;;0.73;0.50;;;31.30;42.70;;;;;;4151179;28;20060;-42
2023/02/05 08:02:03;;;;;;;0.70;0.38;;;31.20;42.70;;;;;;4149949;28;20103;-46
2023/02/05 08:04:25;;;;;;;3.13;0.77;;;31.20;42.80;;;;;;4148599;28;20555;-40
2023/02/05 08:06:48;;;;;;;1.38;0.50;;;31.20;43.00;;;;;;4147878;28;20657;-42
2023/02/05 08:09:13;;;;;;;1.42;0.50;;;31.20;43.10;;;;;;4151296;28;20053;-40
2023/02/05 08:11:35;;;;;;;1.83;0.50;;;31.10;43.10;;;;;;4149091;28;20033;-43
2023/02/05 08:13:57;;;;;;;1.80;0.70;;;31.10;43.20;;;;;;4150667;28;20394;-43
2023/02/05 08:16:20;;;;;;;2.05;0.88;;;31.00;43.10;;;;;;4148996;28;20796;-40
2023/02/05 08:18:47;;;;;;;1.17;0.60;;;30.90;43.00;;;;;;4149841;28;20041;-41
2023/02/05 08:21:09;;;;;;;1.65;0.90;;;30.70;42.80;;;;;;4151460;28;20037;-44
2023/02/05 08:23:32;;;;;;;1.35;0.80;;;30.50;43.00;;;;;;4148924;28;20400;-43
2023/02/05 08:25:55;;;;;;;1.00;0.80;;;30.30;42.60;;;;;;4152776;28;20038;-40
2023/02/05 08:28:17;;;;;;;;;;;30.10;43.10;;;;;;4149529;28;20053;-42
2023/02/05 08:30:40;;;;;;;11.75;0.90;;;29.90;43.50;;;;;;4150494;28;19913;-44
2023/02/05 08:33:02;;;;;;;2.03;0.60;;;29.70;43.00;;;;;;4149629;28;20033;-43
2023/02/05 08:35:25;;;;;;;2.08;0.93;;;29.60;43.30;;;;;;4149291;28;20259;-39
2023/02/05 08:37:47;;;;;;;1.92;0.75;;;29.40;43.00;;;;;;4149409;28;20069;-40
2023/02/05 08:40:10;;;;;;;1.42;0.73;;;29.20;43.20;;;;;;4149276;28;20992;-39
2023/02/05 08:42:33;;;;;;;1.83;0.68;;;29.00;42.90;;;;;;4148550;28;20049;-43
2023/02/05 08:44:57;;;;;;;0.73;0.50;;;28.90;43.50;;;;;;4150502;28;20033;-42
2023/02/05 08:47:20;;;;;;;1.05;0.65;;;28.70;43.30;;;;;;4149382;28;20720;-46
2023/02/05 08:49:42;;;;;;;;;;;28.60;44.10;;;;;;4149247;28;20061;-41
2023/02/05 08:52:05;;;;;;;1.35;0.60;;;28.40;44.00;;;;;;4148497;28;19971;-40
2023/02/05 08:54:27;;;;;;;1.92;1.00;;;28.30;43.90;;;;;;4149033;28;20036;-43
2023/02/05 08:56:52;;;;;;;1.13;0.70;;;28.10;43.90;;;;;;4149808;28;20382;-45
2023/02/05 08:59:15;;;;;;;1.65;0.68;;;27.90;43.60;;;;;;4150540;28;20049;-44
2023/02/05 09:01:41;;;;;;;0.90;0.68;;;27.70;43.20;;;;;;4148989;28;20044;-40
2023/02/05 09:04:05;;;;;;;1.75;0.73;;;27.50;43.90;;;;;;4147764;28;20038;-39
2023/02/05 09:06:27;;;;;;;1.58;0.77;;;27.30;43.70;;;;;;4150879;28;20132;-42
2023/02/05 09:08:49;;;;;;;3.55;0.73;;;27.20;44.10;;;;;;4147617;28;20489;-43
2023/02/05 09:11:12;;;;;;;0.88;0.50;;;27.00;44.30;;;;;;4148865;28;20790;-43
2023/02/05 09:13:35;;;;;;;1.27;0.50;;;26.80;44.30;;;;;;4147241;28;20485;-41
2023/02/05 09:15:57;;;;;;;1.13;0.63;;;26.70;44.70;;;;;;4146592;28;20509;-42
2023/02/05 09:18:20;;;;;;;1.52;0.80;;;26.50;44.70;;;;;;4151442;28;20420;-40
2023/02/05 09:20:45;;;;;;;1.40;0.80;;;26.40;44.90;;;;;;4147537;28;20485;-39
2023/02/05 09:23:11;;;;;;;1.80;0.70;;;26.20;44.90;;;;;;4152608;28;20034;-42
2023/02/05 09:25:34;;;;;;;1.30;0.60;;;26.10;45.20;;;;;;4152889;28;20069;-41
2023/02/05 09:27:56;;;;;;;2.55;0.88;;;25.90;45.20;;;;;;4154019;28;20481;-39
2023/02/05 09:30:19;;;;;;;1.50;0.55;;;25.80;45.30;;;;;;4151832;28;20053;-42
2023/02/05 09:32:41;;;;;;;0.55;0.50;;;25.60;45.60;;;;;;4154233;28;20033;-43
2023/02/05 09:35:03;;;;;;;1.23;0.63;;;25.50;45.20;;;;;;4151441;28;20276;-40
2023/02/05 09:37:26;;;;;;;1.60;0.68;;;25.40;45.70;;;;;;4154292;28;20042;-45
2023/02/05 09:39:48;;;;;;;0.80;0.65;;;25.40;46.70;;;;;;4151324;28;20080;-48
2023/02/05 09:42:33;;;;;;;1.65;0.90;;;25.40;45.90;;;;;;4155492;28;20410;-43
2023/02/05 09:45:13;;;;;;;1.15;0.68;;;25.40;45.90;;;;;;4152940;28;20037;-46
2023/02/05 09:47:59;;;;;;;1.20;0.60;;;25.40;46.90;;;;;;4154333;28;20041;-41
2023/02/05 09:50:28;;;;;;;1.45;0.43;;;25.30;46.40;;;;;;4152830;28;20122;-39
2023/02/05 09:52:54;;;;;;;1.90;0.85;;;25.20;46.30;;;;;;4154708;28;20116;-43
2023/02/05 09:55:33;;;;;;;1.63;0.70;;;25.10;47.20;;;;;;4151763;28;20045;-41
2023/02/05 09:58:13;;;;;;;1.58;0.70;;;25.00;46.90;;;;;;4148972;28;20142;-44
2023/02/05 10:00:52;;;;;;;0.82;0.50;;;25.00;46.60;;;;;;4155017;28;20064;-39
2023/02/05 10:03:33;;;;;;;1.27;0.65;;;25.10;46.70;;;;;;4149487;28;20033;-42
2023/02/05 10:06:04;;;;;;;1.92;0.70;;;25.10;48.00;;;;;;4151043;28;20147;-42
2023/02/05 10:08:57;;;;;;;1.80;1.00;;;25.00;47.30;;;;;;4156236;28;20149;-42
2023/02/05 10:11:39;;;;;;;2.13;0.85;;;24.90;46.90;;;;;;4145501;28;20400;-40
2023/02/05 10:14:22;;;;;;;0.90;0.63;;;24.80;46.90;;;;;;4153009;28;20834;-40
2023/02/05 10:17:06;;;;;;;1.05;0.60;;;24.60;47.30;;;;;;4152076;28;20322;-44
2023/02/05 10:19:49;;;;;;;1.20;0.73;;;24.60;47.40;;;;;;4145468;28;20116;-41
2023/02/05 10:22:28;;;;;;;1.27;0.70;;;24.70;47.30;;;;;;4153609;28;20069;-43
2023/02/05 10:25:14;;;;;;;1.23;0.65;;;24.70;47.40;;;;;;4151731;28;20455;-40
2023/02/05 10:28:01;;;;;;;1.38;0.70;;;24.70;48.40;;;;;;4145329;28;20042;-39
2023/02/05 10:30:49;;;;;;;1.92;0.70;;;24.60;47.60;;;;;;4151547;28;20045;-40
2023/02/05 10:33:18;;;;;;;0.77;0.60;;;24.50;47.40;;;;;;4152563;28;20405;-39
2023/02/05 10:35:56;;;;;;;0.90;0.50;;;24.40;47.90;;;;;;4152616;28;20107;-38
2023/02/05 10:38:26;;;;;;;1.45;0.47;;;24.40;47.90;;;;;;4152333;28;20045;-39
2023/02/05 10:40:54;;;;;;;1.35;0.60;;;24.50;47.90;;;;;;4153082;28;20772;-38
2023/02/05 10:43:38;;;;;;;1.38;0.60;;;24.50;48.00;;;;;;4153364;28;20039;-40
2023/02/05 10:46:01;;;;;;;1.48;0.70;;;24.60;49.40;;;;;;4150280;28;20033;-41
2023/02/05 10:48:41;;;;;;;1.50;0.68;;;24.50;48.30;;;;;;4155299;28;20088;-47
2023/02/05 10:51:12;;;;;;;1.42;0.80;;;24.40;47.90;;;;;;4152507;28;20044;-42
2023/02/05 10:53:35;;;;;;;1.45;0.70;;;24.30;48.10;;;;;;4148366;28;20048;-42
2023/02/05 10:55:59;;;;;;;1.25;0.68;;;24.30;48.30;;;;;;4153555;28;20047;-43
2023/02/05 10:58:21;;;;;;;;;;;24.30;48.20;;;;;;4149254;28;20034;-41
2023/02/05 11:00:43;;;;;;;0.95;0.52;;;24.30;48.30;;;;;;4154285;28;20399;-40
2023/02/05 11:03:06;;;;;;;1.88;0.80;;;24.40;48.40;;;;;;4149893;28;20525;-40
2023/02/05 11:05:37;;;;;;;1.23;0.65;;;24.50;49.90;;;;;;4153302;28;20493;-42
2023/02/05 11:08:00;;;;;;;1.48;0.73;;;24.40;48.70;;;;;;4151266;28;20064;-42
2023/02/05 11:10:29;;;;;;;1.15;0.70;;;24.30;48.20;;;;;;4152448;28;20059;-41
2023/02/05 11:12:55;;;;;;;1.38;0.80;;;24.20;48.20;;;;;;4153682;28;20040;-41
2023/02/05 11:15:27;;;;;;;0.65;0.43;;;24.10;48.60;;;;;;4153087;28;20044;-38
2023/02/05 11:18:21;;;;;;;1.00;0.60;;;24.10;48.60;;;;;;4154600;28;20068;-42
2023/02/05 11:20:55;;;;;;;1.63;0.83;;;24.10;48.60;;;;;;4152408;28;20069;-40
2023/02/05 11:23:23;;;;;;;1.23;0.70;;;24.20;48.80;;;;;;4150371;28;20072;-39
2023/02/05 11:25:51;;;;;;;1.52;0.70;;;24.20;48.90;;;;;;4146589;28;20406;-39
2023/02/05 11:28:22;;;;;;;1.88;0.80;;;24.30;50.20;;;;;;4149438;28;20485;-42
2023/02/05 11:30:45;;;;;;;2.03;0.95;;;24.20;48.90;;;;;;4149513;28;20107;-42
2023/02/05 11:33:25;;;;;;;1.50;0.68;;;24.00;48.40;;;;;;4155552;28;20046;-40
2023/02/05 11:35:55;;;;;;;0.98;0.73;;;24.00;48.90;;;;;;4149353;28;20382;-41
2023/02/05 11:38:35;;;;;;;1.70;0.88;;;24.00;48.90;;;;;;4155332;28;20052;-40
2023/02/05 11:41:01;;;;;;;2.42;0.70;;;24.10;49.00;;;;;;4155858;28;20493;-40
2023/02/05 11:43:34;;;;;;;1.98;0.80;;;24.10;49.10;;;;;;4156126;28;20041;-42
2023/02/05 11:45:59;;;;;;;1.60;0.65;;;24.20;49.20;;;;;;4150928;28;20064;-38
2023/02/05 11:48:54;;;;;;;1.27;0.70;;;24.20;49.30;;;;;;4156391;28;20179;-39
2023/02/05 11:51:43;;;;;;;1.27;0.68;;;24.30;49.40;;;;;;4147300;28;20486;-45
2023/02/05 11:54:28;;;;;;;1.77;0.70;;;24.40;49.70;;;;;;4152515;28;20100;-42
2023/02/05 11:57:26;;;;;;;1.60;0.80;;;24.40;49.70;;;;;;4152975;28;20756;-46
2023/02/05 12:00:08;;;;;;;4.82;1.33;;;24.50;51.80;;;;;;4154005;28;20049;-40
2023/02/05 12:02:33;;;;;;;4.00;1.10;;;24.60;52.70;;;;;;4153934;28;20056;-39
2023/02/05 12:05:11;;;;;;;4.93;1.20;;;24.70;52.00;;;;;;4155840;28;20044;-37
2023/02/05 12:07:55;;;;;;;3.65;0.93;;;24.70;51.90;;;;;;4150554;28;20180;-39
2023/02/05 12:10:37;;;;;;;4.85;0.80;;;24.70;52.00;;;;;;4151289;28;20511;-39
2023/02/05 12:13:15;;;;;;;3.60;1.10;;;24.80;52.10;;;;;;4152322;28;20426;-39
2023/02/05 12:16:18;;;;;;;5.45;1.20;;;24.80;52.40;;;;;;4154978;28;20106;-39
2023/02/05 12:18:43;;;;;;;3.22;0.82;;;24.80;52.20;;;;;;4151936;28;20045;-40
2023/02/05 12:21:24;;;;;;;1.70;0.70;;;24.90;52.40;;;;;;4153623;28;20033;-50
2023/02/05 12:24:05;;;;;;;1.33;0.60;;;25.00;52.30;;;;;;4149498;28;20533;-38
2023/02/05 12:26:33;;;;;;;3.70;0.85;;;25.10;52.30;;;;;;4150843;28;20437;-39
2023/02/05 12:29:37;;;;;;;2.50;0.75;;;25.10;52.50;;;;;;4153310;28;20374;-38
2023/02/05 12:32:29;;;;;;;1.20;0.70;;;25.10;52.40;;;;;;4135690;28;20298;-40
2023/02/05 12:35:15;;;;;;;3.42;1.00;;;25.10;52.30;;;;;;4153488;28;20044;-44
2023/02/05 12:37:56;;;;;;;5.30;0.88;;;25.20;52.50;;;;;;4152740;28;20132;-39
2023/02/05 12:40:33;;;;;;;3.88;0.65;;;25.30;52.40;;;;;;4148940;28;20041;-44
2023/02/05 12:43:30;;;;;;;15.68;0.93;;;25.40;52.50;;;;;;4153050;28;20694;-40
2023/02/05 12:46:15;;;;;;;13.52;1.35;;;25.40;52.40;;;;;;4148335;28;20048;-39
2023/02/05 12:48:45;;;;;;;10.10;1.67;;;25.40;52.50;;;;;;4151585;28;20413;-38
2023/02/05 12:51:45;;;;;;;4.00;1.20;;;25.50;52.40;;;;;;4152626;28;20554;-38
2023/02/05 12:54:39;;;;;;;5.50;1.10;;;25.50;52.40;;;;;;4150089;28;20041;-40
2023/02/05 12:57:12;;;;;;;3.65;0.98;;;25.50;52.40;;;;;;4142124;28;20052;-41
2023/02/05 12:59:40;;;;;;;5.10;0.98;;;25.60;52.50;;;;;;4152277;28;20369;-41
2023/02/05 13:02:22;;;;;;;4.63;1.08;;;25.60;52.50;;;;;;4150777;28;20033;-42
2023/02/05 13:05:08;;;;;;;5.65;1.10;;;25.70;52.60;;;;;;4153840;28;20799;-40
2023/02/05 13:07:40;;;;;;;3.78;0.80;;;25.70;52.50;;;;;;4155092;28;20529;-38
2023/02/05 13:10:07;;;;;;;4.35;1.08;;;25.70;52.60;;;;;;4153334;28;20053;-42
2023/02/05 13:12:35;;;;;;;5.78;1.00;;;25.80;52.60;;;;;;4150908;28;20029;-40
2023/02/05 13:15:22;;;;;;;4.85;0.68;;;25.80;52.70;;;;;;4152768;28;20379;-39
2023/02/05 13:17:57;;;;;;;1.80;0.85;;;25.90;52.70;;;;;;4156045;28;20037;-38
2023/02/05 13:28:38;;;;;;;3.30;0.70;;;25.90;52.70;;;;;;4153107;28;20045;-39
2023/02/05 13:29:01;;;;;;;5.50;1.50;;;26.00;52.60;;;;;;4152618;28;20049;-40